createdAt,value
2022-11-30T00:01:21.579Z,36.33
2022-11-30T00:03:49.219Z,37.28
2022-11-30T00:06:23.242Z,32.13
2022-11-30T00:08:58.168Z,33.17
2022-11-30T00:11:27.446Z,33.75
2022-11-30T00:13:54.685Z,34.08
2022-11-30T00:16:22.335Z,35.40
2022-11-30T00:18:50.062Z,28.83
2022-11-30T00:21:17.599Z,32.80
2022-11-30T00:23:46.558Z,40.10
2022-11-30T00:26:16.389Z,31.55
2022-11-30T00:28:45.499Z,40.47
2022-11-30T00:31:14.740Z,31.73
2022-11-30T00:33:42.421Z,34.47
2022-11-30T00:36:18.489Z,35.25
2022-11-30T00:38:46.440Z,36.33
2022-11-30T00:41:13.601Z,37.83
2022-11-30T00:43:40.724Z,29.60
2022-11-30T00:46:09.521Z,34.35
2022-11-30T00:48:37.758Z,37.00
2022-11-30T00:51:05.974Z,36.10
2022-11-30T00:53:32.990Z,34.65
2022-11-30T00:56:00.081Z,35.42
2022-11-30T00:58:27.163Z,39.42
2022-11-30T01:00:54.325Z,36.05
2022-11-30T01:03:21.443Z,37.05
2022-11-30T01:05:48.428Z,38.28
2022-11-30T01:08:15.419Z,32.60
2022-11-30T01:10:43.549Z,33.00
2022-11-30T01:13:12.998Z,36.50
2022-11-30T01:15:44.119Z,38.85
2022-11-30T01:18:11.689Z,38.35
2022-11-30T01:20:43.227Z,39.95
2022-11-30T01:23:11.466Z,34.88
2022-11-30T01:25:38.742Z,34.05
2022-11-30T01:28:06.079Z,40.70
2022-11-30T01:30:33.141Z,42.38
2022-11-30T01:33:06.221Z,40.17
2022-11-30T01:35:33.207Z,41.90
2022-11-30T01:38:00.236Z,41.40
2022-11-30T01:40:27.528Z,49.33
2022-11-30T01:42:54.569Z,48.63
2022-11-30T01:45:21.673Z,45.58
2022-11-30T01:47:52.419Z,45.15
2022-11-30T01:50:26.318Z,43.53
2022-11-30T01:52:56.671Z,37.03
2022-11-30T01:55:32.587Z,40.08
2022-11-30T01:58:14.112Z,39.63
2022-11-30T02:00:44.729Z,40.53
2022-11-30T02:03:17.854Z,40.08
2022-11-30T02:05:45.735Z,38.55
2022-11-30T02:08:12.848Z,37.03
2022-11-30T02:10:43.971Z,40.90
2022-11-30T02:13:25.770Z,43.55
2022-11-30T02:16:06.641Z,47.20
2022-11-30T02:18:47.310Z,38.42
2022-11-30T02:21:17.447Z,38.42
2022-11-30T02:24:09.454Z,42.22
2022-11-30T02:26:42.632Z,38.65
2022-11-30T02:29:27.847Z,44.83
2022-11-30T02:32:12.706Z,37.70
2022-11-30T02:34:42.555Z,35.28
2022-11-30T02:37:12.415Z,35.30
2022-11-30T02:39:39.451Z,42.08
2022-11-30T02:42:15.716Z,37.67
2022-11-30T02:44:47.546Z,35.78
2022-11-30T02:47:20.953Z,40.50
2022-11-30T02:50:09.780Z,39.47
2022-11-30T02:52:36.920Z,36.20
2022-11-30T02:55:09.106Z,37.90
2022-11-30T02:57:36.242Z,38.63
2022-11-30T03:00:07.439Z,37.30
2022-11-30T03:02:34.905Z,48.88
2022-11-30T03:05:01.954Z,37.95
2022-11-30T03:07:28.979Z,37.92
2022-11-30T03:09:56.134Z,38.60
2022-11-30T03:12:23.494Z,41.97
2022-11-30T03:14:50.586Z,40.65
2022-11-30T03:17:17.736Z,38.50
2022-11-30T03:19:44.749Z,39.88
2022-11-30T03:22:11.732Z,40.65
2022-11-30T03:24:38.667Z,42.58
2022-11-30T03:27:05.664Z,39.45
2022-11-30T03:29:32.899Z,38.97
2022-11-30T03:31:59.864Z,45.28
2022-11-30T03:34:27.816Z,44.78
2022-11-30T03:36:55.756Z,40.28
2022-11-30T03:39:24.344Z,38.63
2022-11-30T03:41:51.859Z,45.05
2022-11-30T03:44:18.945Z,35.17
2022-11-30T03:46:46.014Z,39.70
2022-11-30T03:49:13.021Z,38.78
2022-11-30T03:51:39.974Z,34.20
2022-11-30T03:54:06.909Z,38.03
2022-11-30T03:56:33.865Z,40.80
2022-11-30T03:59:00.817Z,37.88
2022-11-30T04:01:28.252Z,44.38
2022-11-30T04:03:55.313Z,37.25
2022-11-30T04:06:22.654Z,36.42
2022-11-30T04:08:50.010Z,39.85
2022-11-30T04:11:17.209Z,41.35
2022-11-30T04:13:44.733Z,42.70
2022-11-30T04:16:12.080Z,40.70
2022-11-30T04:18:39.338Z,39.13
2022-11-30T04:21:08.006Z,42.58
2022-11-30T04:23:38.288Z,42.85
2022-11-30T04:26:07.105Z,36.45
2022-11-30T04:28:34.718Z,44.45
2022-11-30T04:31:02.890Z,41.70
2022-11-30T04:33:30.636Z,33.60
2022-11-30T04:36:01.283Z,41.08
2022-11-30T04:38:29.984Z,40.15
2022-11-30T04:40:57.329Z,37.50
2022-11-30T04:43:25.015Z,35.53
2022-11-30T04:45:52.398Z,39.67
2022-11-30T04:48:20.175Z,39.25
2022-11-30T04:50:47.174Z,37.13
2022-11-30T04:53:14.330Z,42.25
2022-11-30T04:55:41.410Z,35.50
2022-11-30T04:58:08.487Z,41.13
2022-11-30T05:00:36.401Z,39.72
2022-11-30T05:03:03.482Z,37.78
2022-11-30T05:05:30.573Z,35.85
2022-11-30T05:07:59.769Z,36.85
2022-11-30T05:10:28.216Z,40.13
2022-11-30T05:12:56.410Z,39.90
2022-11-30T05:15:23.381Z,41.10
2022-11-30T05:17:50.405Z,43.30
2022-11-30T05:20:17.732Z,46.15
2022-11-30T05:22:44.705Z,45.20
2022-11-30T05:25:11.695Z,35.17
2022-11-30T05:27:38.758Z,41.67
2022-11-30T05:30:07.453Z,41.15
2022-11-30T05:32:35.297Z,36.63
2022-11-30T05:35:02.462Z,42.55
2022-11-30T05:37:29.433Z,43.45
2022-11-30T05:39:56.453Z,41.30
2022-11-30T05:42:23.647Z,42.20
2022-11-30T05:44:50.788Z,35.17
2022-11-30T05:47:18.130Z,34.08
2022-11-30T05:49:45.140Z,41.38
2022-11-30T05:52:12.142Z,42.45
2022-11-30T05:54:39.156Z,39.40
2022-11-30T05:57:06.094Z,39.35
2022-11-30T05:59:33.573Z,39.67
2022-11-30T06:02:00.628Z,41.28
2022-11-30T06:04:27.713Z,44.53
2022-11-30T06:06:56.025Z,42.55
2022-11-30T06:09:23.709Z,48.30
2022-11-30T06:11:51.357Z,39.10
2022-11-30T06:14:18.670Z,39.50
2022-11-30T06:16:45.842Z,39.40
2022-11-30T06:19:12.826Z,37.45
2022-11-30T06:21:39.843Z,41.58
2022-11-30T06:24:07.192Z,34.40
2022-11-30T06:26:34.230Z,47.67
2022-11-30T06:29:01.187Z,38.10
2022-11-30T06:31:28.212Z,40.45
2022-11-30T06:34:00.103Z,42.17
2022-11-30T06:36:32.677Z,37.33
2022-11-30T06:39:01.206Z,44.65
2022-11-30T06:41:28.220Z,38.33
2022-11-30T06:43:55.179Z,41.40
2022-11-30T06:46:22.674Z,41.55
2022-11-30T06:48:51.044Z,37.72
2022-11-30T06:51:19.053Z,34.17
2022-11-30T06:53:47.018Z,45.25
2022-11-30T06:56:14.066Z,44.08
2022-11-30T06:58:41.969Z,38.78
2022-11-30T07:01:11.762Z,37.40
2022-11-30T07:03:40.362Z,41.88
2022-11-30T07:06:09.701Z,43.53
2022-11-30T07:08:37.083Z,40.17
2022-11-30T07:11:04.650Z,37.92
2022-11-30T07:13:31.788Z,42.97
2022-11-30T07:15:58.752Z,38.15
2022-11-30T07:18:31.468Z,38.85
2022-11-30T07:21:03.352Z,40.28
2022-11-30T07:23:55.618Z,35.28
2022-11-30T07:26:23.456Z,37.70
2022-11-30T07:28:55.087Z,39.92
2022-11-30T07:31:31.364Z,38.25
2022-11-30T07:33:59.576Z,34.67
2022-11-30T07:36:28.007Z,33.35
2022-11-30T07:38:54.989Z,36.50
2022-11-30T07:41:22.164Z,38.30
2022-11-30T07:43:49.286Z,42.85
2022-11-30T07:46:17.395Z,36.53
2022-11-30T07:48:45.427Z,39.63
2022-11-30T07:51:15.059Z,40.05
2022-11-30T07:53:42.314Z,41.28
2022-11-30T07:56:13.077Z,41.05
2022-11-30T07:58:41.839Z,39.05
2022-11-30T08:01:11.489Z,35.15
2022-11-30T08:03:38.709Z,33.67
2022-11-30T08:06:12.069Z,37.95
2022-11-30T08:08:41.470Z,34.83
2022-11-30T08:11:10.514Z,35.92
2022-11-30T08:13:38.255Z,33.55
2022-11-30T08:16:14.367Z,32.88
2022-11-30T08:18:42.326Z,36.28
2022-11-30T08:21:11.664Z,34.53
2022-11-30T08:23:44.236Z,35.72
2022-11-30T08:26:16.816Z,33.25
2022-11-30T08:28:45.492Z,37.42
2022-11-30T08:31:15.659Z,34.22
2022-11-30T08:33:43.030Z,35.08
2022-11-30T08:36:11.563Z,37.97
2022-11-30T08:38:39.953Z,33.85
2022-11-30T08:41:07.838Z,30.13
2022-11-30T08:43:35.168Z,34.35
2022-11-30T08:46:21.578Z,31.60
2022-11-30T08:49:07.360Z,33.55
2022-11-30T08:52:08.609Z,36.00
2022-11-30T08:54:27.747Z,29.52
2022-11-30T08:56:55.480Z,34.95
2022-11-30T08:59:22.496Z,32.55
2022-11-30T09:01:49.470Z,34.22
2022-11-30T09:04:16.558Z,31.98
2022-11-30T09:06:43.499Z,26.95
2022-11-30T09:09:10.471Z,34.63
2022-11-30T09:11:37.528Z,30.23
2022-11-30T09:14:05.402Z,34.72
2022-11-30T09:16:32.561Z,27.63
2022-11-30T09:18:59.559Z,28.48
2022-11-30T09:21:26.937Z,30.10
2022-11-30T09:23:56.690Z,29.88
2022-11-30T09:26:25.717Z,29.42
2022-11-30T09:28:54.244Z,28.95
2022-11-30T09:31:24.542Z,38.30
2022-11-30T09:33:52.625Z,29.05
2022-11-30T09:36:21.862Z,29.90
2022-11-30T09:38:49.949Z,32.67
2022-11-30T09:41:28.903Z,43.28
2022-11-30T09:44:10.857Z,26.67
2022-11-30T09:47:01.225Z,28.25
2022-11-30T09:49:32.199Z,28.30
2022-11-30T09:52:04.386Z,27.73
2022-11-30T09:54:39.894Z,26.27
2022-11-30T09:57:19.482Z,49.28
2022-11-30T10:00:00.353Z,26.35
2022-11-30T10:02:31.673Z,27.15
2022-11-30T10:04:59.823Z,24.77
2022-11-30T10:07:26.822Z,26.85
2022-11-30T10:10:37.211Z,28.83
2022-11-30T10:13:17.348Z,22.20
2022-11-30T10:15:57.522Z,25.17
2022-11-30T10:18:43.104Z,21.80
2022-11-30T10:21:31.569Z,27.92
2022-11-30T10:24:07.196Z,20.33
2022-11-30T10:26:38.335Z,28.73
2022-11-30T10:29:18.199Z,24.08
2022-11-30T10:31:49.083Z,27.88
2022-11-30T10:34:25.754Z,22.77
2022-11-30T10:37:11.282Z,23.27
2022-11-30T10:39:51.576Z,22.88
2022-11-30T10:42:26.501Z,25.70
2022-11-30T10:44:59.882Z,24.75
2022-11-30T10:47:34.058Z,22.55
2022-11-30T10:50:01.761Z,35.15
2022-11-30T10:52:38.151Z,19.48
2022-11-30T10:55:27.345Z,21.45
2022-11-30T10:58:32.812Z,22.92
2022-11-30T11:01:10.018Z,20.33
2022-11-30T11:03:38.389Z,18.25
2022-11-30T11:06:23.079Z,22.42
2022-11-30T11:08:50.463Z,25.42
2022-11-30T11:11:57.343Z,24.50
2022-11-30T11:14:26.639Z,22.55
2022-11-30T11:16:57.695Z,25.15
2022-11-30T11:19:34.532Z,21.88
2022-11-30T11:22:16.189Z,18.02
2022-11-30T11:24:43.535Z,19.77
2022-11-30T11:27:29.803Z,19.85
2022-11-30T11:30:27.149Z,20.60
2022-11-30T11:33:02.017Z,24.30
2022-11-30T11:35:34.882Z,20.80
2022-11-30T11:38:02.032Z,17.38
2022-11-30T11:40:29.173Z,19.13
2022-11-30T11:43:00.110Z,19.10
2022-11-30T11:45:35.985Z,16.63
2022-11-30T11:48:12.660Z,18.90
2022-11-30T11:53:44.856Z,16.15
2022-11-30T11:56:26.565Z,18.52
2022-11-30T11:59:17.187Z,16.10
2022-11-30T12:02:07.677Z,17.30
2022-11-30T12:04:51.700Z,19.08
2022-11-30T12:07:39.601Z,18.08
2022-11-30T12:10:52.216Z,17.23
2022-11-30T12:13:22.610Z,17.20
2022-11-30T12:15:55.475Z,16.00
2022-11-30T12:18:31.080Z,17.00
2022-11-30T12:21:16.605Z,19.15
2022-11-30T12:24:01.415Z,18.33
2022-11-30T12:27:06.636Z,18.58
2022-11-30T12:29:52.338Z,16.45
2022-11-30T12:33:00.313Z,24.20
2022-11-30T12:35:37.228Z,17.45
2022-11-30T12:38:13.009Z,21.00
2022-11-30T12:41:07.806Z,20.95
2022-11-30T12:44:04.413Z,19.17
2022-11-30T12:47:05.174Z,20.13
2022-11-30T12:49:32.147Z,26.73
2022-11-30T12:52:44.366Z,20.15
2022-11-30T12:55:26.637Z,20.83
2022-11-30T12:57:56.420Z,17.88
2022-11-30T13:00:29.269Z,20.50
2022-11-30T13:03:23.429Z,23.13
2022-11-30T13:06:05.770Z,24.48
2022-11-30T13:08:51.199Z,19.48
2022-11-30T13:11:24.779Z,18.15
2022-11-30T13:13:56.667Z,15.68
2022-11-30T13:16:25.757Z,15.98
2022-11-30T13:18:59.302Z,13.88
2022-11-30T13:21:41.418Z,18.40
2022-11-30T13:24:29.376Z,17.35
2022-11-30T13:27:16.397Z,15.55
2022-11-30T13:30:21.215Z,14.40
2022-11-30T13:32:57.822Z,14.80
2022-11-30T13:35:28.163Z,20.88
2022-11-30T13:38:34.754Z,13.32
2022-11-30T13:41:04.728Z,17.83
2022-11-30T13:43:45.687Z,14.60
2022-11-30T13:46:25.889Z,12.57
2022-11-30T13:49:31.257Z,14.80
2022-11-30T13:52:21.359Z,17.30
2022-11-30T13:54:48.123Z,22.45
2022-11-30T13:57:30.463Z,16.92
2022-11-30T13:59:59.709Z,15.05
2022-11-30T14:02:32.742Z,18.75
2022-11-30T14:05:17.953Z,12.70
2022-11-30T14:07:48.047Z,13.63
2022-11-30T14:10:33.297Z,18.52
2022-11-30T14:13:24.451Z,15.88
2022-11-30T14:15:55.063Z,14.23
2022-11-30T14:18:24.240Z,12.00
2022-11-30T14:21:13.264Z,13.80
2022-11-30T14:23:40.270Z,13.88
2022-11-30T14:26:22.586Z,17.80
2022-11-30T14:28:52.359Z,19.90
2022-11-30T14:31:25.230Z,13.38
2022-11-30T14:33:55.310Z,16.40
2022-11-30T14:36:26.905Z,19.33
2022-11-30T14:38:54.014Z,17.95
2022-11-30T14:41:24.250Z,23.08
2022-11-30T14:44:13.782Z,12.35
2022-11-30T14:46:41.802Z,14.52
2022-11-30T14:49:19.074Z,14.23
2022-11-30T14:51:59.021Z,15.25
2022-11-30T14:54:48.579Z,14.30
2022-11-30T14:57:28.154Z,19.45
2022-11-30T14:59:56.490Z,16.65
2022-11-30T15:02:31.595Z,13.70
2022-11-30T15:05:00.129Z,22.77
2022-11-30T15:07:28.522Z,16.42
2022-11-30T15:10:05.111Z,20.48
2022-11-30T15:12:33.327Z,26.80
2022-11-30T15:15:12.619Z,18.17
2022-11-30T15:17:54.656Z,18.85
2022-11-30T15:20:55.315Z,20.67
2022-11-30T15:23:22.812Z,17.45
2022-11-30T15:26:09.924Z,18.88
2022-11-30T15:28:41.916Z,16.60
2022-11-30T15:31:16.122Z,17.85
2022-11-30T15:33:46.262Z,16.98
2022-11-30T15:36:31.472Z,18.58
2022-11-30T15:39:03.294Z,21.92
2022-11-30T15:41:32.339Z,20.63
2022-11-30T15:43:59.553Z,18.63
2022-11-30T15:46:32.397Z,17.65
2022-11-30T15:49:12.607Z,25.95
2022-11-30T15:51:42.552Z,21.92
2022-11-30T15:54:09.742Z,19.30
2022-11-30T15:56:36.789Z,24.90
2022-11-30T15:59:14.831Z,18.58
2022-11-30T16:02:02.660Z,21.58
2022-11-30T16:04:58.622Z,23.20
2022-11-30T16:07:35.551Z,28.17
2022-11-30T16:10:13.384Z,23.15
2022-11-30T16:12:42.260Z,32.30
2022-11-30T16:15:27.431Z,20.63
2022-11-30T16:18:16.449Z,27.60
2022-11-30T16:20:45.884Z,22.25
2022-11-30T16:23:15.540Z,23.00
2022-11-30T16:25:44.168Z,27.15
2022-11-30T16:28:13.452Z,27.02
2022-11-30T16:30:41.406Z,22.27
2022-11-30T16:33:19.117Z,25.65
2022-11-30T16:35:59.559Z,26.15
2022-11-30T16:38:28.006Z,25.35
2022-11-30T16:40:56.751Z,29.67
2022-11-30T16:43:26.014Z,28.02
2022-11-30T16:45:53.126Z,30.17
2022-11-30T16:48:20.774Z,33.55
2022-11-30T16:50:48.108Z,34.95
2022-11-30T16:53:16.666Z,28.75
2022-11-30T16:55:44.205Z,27.40
2022-11-30T16:58:11.462Z,30.52
2022-11-30T17:00:40.551Z,29.08
2022-11-30T17:03:23.645Z,33.40
2022-11-30T17:05:50.829Z,34.40
2022-11-30T17:08:18.407Z,33.08
2022-11-30T17:10:46.242Z,30.92
2022-11-30T17:13:15.282Z,33.88
2022-11-30T17:15:44.132Z,31.58
2022-11-30T17:18:12.182Z,33.30
2022-11-30T17:20:40.432Z,40.20
2022-11-30T17:23:08.016Z,31.38
2022-11-30T17:25:35.612Z,38.70
2022-11-30T17:28:02.939Z,37.13
2022-11-30T17:30:30.555Z,33.55
2022-11-30T17:32:57.953Z,35.95
2022-11-30T17:35:25.666Z,44.08
2022-11-30T17:37:54.943Z,41.88
2022-11-30T17:40:22.860Z,36.88
2022-11-30T17:42:50.233Z,42.53
2022-11-30T17:45:19.158Z,39.80
2022-11-30T17:47:46.807Z,44.00
2022-11-30T17:50:14.929Z,36.72
2022-11-30T17:52:44.079Z,36.15
2022-11-30T17:55:11.783Z,45.00
2022-11-30T17:57:39.953Z,43.50
2022-11-30T18:00:08.356Z,40.47
2022-11-30T18:02:37.401Z,36.70
2022-11-30T18:05:07.743Z,45.88
2022-11-30T18:07:35.606Z,42.65
2022-11-30T18:10:03.730Z,45.17
2022-11-30T18:12:31.713Z,40.80
2022-11-30T18:14:59.944Z,37.20
2022-11-30T18:17:27.460Z,40.30
2022-11-30T18:19:55.534Z,44.92
2022-11-30T18:22:23.535Z,47.55
2022-11-30T18:24:53.136Z,35.78
2022-11-30T18:27:20.898Z,34.75
2022-11-30T18:29:48.913Z,49.28
2022-11-30T18:32:16.758Z,45.05
2022-11-30T18:34:49.744Z,37.75
2022-11-30T18:37:20.555Z,42.45
2022-11-30T18:39:48.785Z,44.42
2022-11-30T18:42:18.807Z,44.00
2022-11-30T18:44:48.375Z,41.00
2022-11-30T18:47:17.374Z,43.38
2022-11-30T18:49:44.996Z,43.55
2022-11-30T18:52:12.651Z,44.75
2022-11-30T18:54:42.951Z,46.35
2022-11-30T18:57:11.230Z,44.67
2022-11-30T18:59:40.202Z,48.10
2022-11-30T19:02:10.029Z,42.78
2022-11-30T19:04:39.092Z,44.65
2022-11-30T19:07:07.134Z,41.22
2022-11-30T19:09:35.051Z,45.80
2022-11-30T19:12:02.623Z,49.90
2022-11-30T19:14:30.244Z,45.47
2022-11-30T19:17:00.672Z,41.17
2022-11-30T19:19:31.259Z,41.65
2022-11-30T19:21:59.503Z,40.25
2022-11-30T19:24:27.541Z,39.17
2022-11-30T19:26:55.689Z,42.30
2022-11-30T19:29:27.626Z,45.85
2022-11-30T19:31:55.597Z,42.25
2022-11-30T19:34:23.761Z,34.75
2022-11-30T19:36:52.299Z,41.92
2022-11-30T19:39:22.187Z,45.92
2022-11-30T19:41:49.920Z,45.58
2022-11-30T19:44:19.711Z,45.83
2022-11-30T19:46:48.119Z,54.55
2022-11-30T19:49:16.144Z,52.33
2022-11-30T19:51:44.195Z,53.20
2022-11-30T19:54:12.526Z,65.18
2022-11-30T19:56:42.664Z,96.18
2022-11-30T19:59:10.586Z,110.38
2022-11-30T20:01:39.101Z,87.45
2022-11-30T20:04:07.381Z,59.00
2022-11-30T20:06:38.667Z,57.42
2022-11-30T20:09:08.363Z,42.10
2022-11-30T20:11:36.212Z,45.90
2022-11-30T20:14:04.777Z,40.15
2022-11-30T20:16:32.841Z,39.35
2022-11-30T20:19:11.965Z,41.72
2022-11-30T20:21:43.173Z,38.22
2022-11-30T20:24:12.905Z,42.80
2022-11-30T20:26:44.558Z,39.10
2022-11-30T20:29:15.638Z,43.88
2022-11-30T20:31:46.201Z,33.58
2022-11-30T20:34:14.090Z,37.55
2022-11-30T20:36:42.496Z,37.95
2022-11-30T20:39:12.592Z,34.10
2022-11-30T20:41:40.964Z,44.00
2022-11-30T20:44:11.873Z,47.30
2022-11-30T20:46:40.577Z,47.92
2022-11-30T20:49:21.362Z,38.58
2022-11-30T20:51:49.737Z,42.05
2022-11-30T20:54:18.244Z,38.35
2022-11-30T20:56:50.884Z,43.20
2022-11-30T20:59:22.724Z,40.47
2022-11-30T21:01:51.845Z,38.72
2022-11-30T21:04:22.639Z,47.08
2022-11-30T21:06:50.426Z,35.75
2022-11-30T21:09:19.883Z,40.50
2022-11-30T21:11:49.257Z,41.00
2022-11-30T21:14:18.624Z,39.40
2022-11-30T21:16:46.193Z,37.42
2022-11-30T21:19:15.647Z,41.47
2022-11-30T21:21:42.894Z,44.40
2022-11-30T21:24:12.516Z,40.95
2022-11-30T21:26:42.024Z,40.50
2022-11-30T21:29:15.408Z,40.60
2022-11-30T21:31:43.992Z,47.28
2022-11-30T21:34:11.256Z,41.63
2022-11-30T21:36:38.938Z,38.88
2022-11-30T21:39:07.611Z,46.15
2022-11-30T21:41:39.545Z,33.55
2022-11-30T21:44:08.696Z,42.65
2022-11-30T21:46:35.823Z,32.92
2022-11-30T21:49:03.499Z,40.30
2022-11-30T21:51:32.116Z,38.67
2022-11-30T21:54:01.771Z,40.92
2022-11-30T21:56:34.880Z,48.35
2022-11-30T21:59:04.109Z,42.13
2022-11-30T22:01:34.802Z,41.30
2022-11-30T22:04:03.399Z,43.50
2022-11-30T22:06:31.727Z,37.60
2022-11-30T22:09:03.722Z,42.30
2022-11-30T22:11:31.368Z,39.97
2022-11-30T22:13:58.606Z,40.10
2022-11-30T22:16:30.062Z,35.70
2022-11-30T22:19:01.416Z,43.97
2022-11-30T22:21:30.273Z,40.15
2022-11-30T22:23:58.509Z,44.40
2022-11-30T22:26:27.809Z,43.13
2022-11-30T22:28:57.925Z,37.13
2022-11-30T22:31:28.408Z,45.55
2022-11-30T22:33:56.382Z,37.55
2022-11-30T22:36:26.038Z,37.90
2022-11-30T22:38:57.757Z,46.05
2022-11-30T22:41:25.937Z,48.20
2022-11-30T22:43:53.672Z,49.92
2022-11-30T22:46:24.060Z,42.95
2022-11-30T22:48:51.648Z,44.97
2022-11-30T22:51:22.055Z,34.28
2022-11-30T22:53:50.034Z,39.53
2022-11-30T22:56:28.781Z,36.95
2022-11-30T22:59:00.290Z,40.17
2022-11-30T23:01:32.263Z,37.38
2022-11-30T23:04:08.560Z,47.08
2022-11-30T23:06:37.693Z,39.17
2022-11-30T23:09:06.984Z,47.35
2022-11-30T23:11:34.038Z,52.65
2022-11-30T23:14:05.657Z,37.15
2022-11-30T23:16:32.868Z,45.63
2022-11-30T23:19:00.730Z,37.20
2022-11-30T23:21:34.788Z,35.15
2022-11-30T23:24:09.376Z,35.10
2022-11-30T23:26:38.340Z,40.83
2022-11-30T23:29:08.457Z,35.90
2022-11-30T23:31:38.549Z,40.00
2022-11-30T23:34:08.676Z,39.00
2022-11-30T23:36:36.881Z,45.65
2022-11-30T23:39:06.846Z,39.92
2022-11-30T23:41:34.406Z,38.65
2022-11-30T23:44:02.369Z,43.05
2022-11-30T23:46:29.614Z,42.00
2022-11-30T23:48:57.065Z,39.95
2022-11-30T23:51:24.339Z,40.72
2022-11-30T23:53:51.575Z,43.10
2022-11-30T23:56:20.513Z,43.05
2022-11-30T23:58:47.994Z,40.20
